Minneapolis, Minnesota
Traffic Map
Current Weather Conditions
Minneapolis, Minnesota
Overcast Haze
Overcast
35°
Feels Like: 29°
Wind Chill: 29° Ceiling: 600
Heat Index: 35° Visibility: 4mi
Dew Point: 33° Wind: 7mph
Humidity: 92% Direction: 160° (SSE)
Pressure: 29.68in Gusts: 0mph
Raw Report DataKMSP 222053Z 16006KT 4SM BR OVC006 02/01 A2968 RMK AO2 SLP057 T00170006 56016
Traffic Incident Summary
Active as of:
Severity:
Category:
InformationThere was an issue retrieving the traffic information for this location. Please try a different location or try again shortly.
Advertisements
Track Severe Weather on mobile